Salem, NH

3:56 AM EDT on August 30, 2016 (GMT -0400)
South Londonderry | | Change Station

Elev 223 ft 42.84 °N, 71.35 °W | Updated 58 seconds ago

Clear
Clear
52.7 °F
Feels Like 52.7 °F
N
0.0
Wind Variable Wind from NE
Gusts 0.0 mph

Today
High -- | Low -- °F
--% Chance of Precip.
Yesterday
High -- | Low -- °F
Precip. -- in
Pressure 30.18 in
Visibility 10.0 miles
Clouds Clear
Dew Point 50.7 °F
Humidity 93%
Rainfall 0.00 in
Snow Depth Not available.
6:07 AM 7:21 PM
Waning Crescent, 4% visible
METAR KLWM 300654Z AUTO 00000KT 10SM CLR 16/13 A3018 RMK AO2 SLP218 T01610128
Pressure 30.18 in
Visibility 10.0 miles
Clouds Clear
Dew Point 50.7 °F
Humidity 93%
Rainfall 0.00 in
Snow Depth Not available.
6:07 AM 7:21 PM
Waning Crescent, 4% visible
METAR KLWM 300654Z AUTO 00000KT 10SM CLR 16/13 A3018 RMK AO2 SLP218 T01610128

10-Day Weather Forecast

Almanac

Astronomy

Aug. 30, 2016 Rise Set
Actual Time
Civil Twilight
Nautical Twilight
Astronomical Twilight
Moon
Length of Visible Light
Length of Day
Tomorrow will be .
, % of the Moon is Illuminated

Today's Extremes

State Highs State Lows

Community

WunderPhotos

Upload Photos

1,935,795 photos uploaded!

WunderBlog® & News

Nearby

Air Quality

  Air Quality AQ Index Pollutant
Not available.

Snow Depth

Station Depth Elevation

Earthquake Activity

City Distance Mag. Time & Date
Minimum magnitude displayed is 2.5.

Coastal Water Temperatures

Place Temperature

Stations

Nearby Weather Stations

Station Location Temp. Windchill Dew Point Humidity Wind Precip. Elev Updated Type
                   

Watches & Warnings

There are currently no watches in effect.